Time;durP1;ratioP1;P1;durP2;ratioP2;P2;SDS_P1;SDS_P2;PMS_P1;PMS_P2;Temp;Humidity;BMP_temperature;BMP_pressure;BME280_temperature;BME280_humidity;BME280_pressure;Samples;Min_cycle;Max_cycle;Signal;HPM_P1;HPM_P2
2021/06/08 00:00:55;;;;;;;27.55;16.35;;;18.40;75.30;;;;;;5092807;28;20032;-62
2021/06/08 00:03:21;;;;;;;31.30;17.80;;;18.40;75.40;;;;;;5090994;28;20036;-62
2021/06/08 00:05:47;;;;;;;29.95;19.42;;;18.40;75.40;;;;;;5090942;28;20028;-62
2021/06/08 00:08:12;;;;;;;30.13;17.50;;;18.40;75.50;;;;;;5090452;28;20042;-62
2021/06/08 00:10:38;;;;;;;29.40;18.88;;;18.30;75.50;;;;;;5091690;28;20028;-62
2021/06/08 00:13:04;;;;;;;28.33;18.98;;;18.30;75.50;;;;;;5072635;28;20131;-62
2021/06/08 00:15:30;;;;;;;28.17;18.25;;;18.30;75.60;;;;;;5071666;28;20028;-62
2021/06/08 00:17:55;;;;;;;29.23;18.45;;;18.30;75.70;;;;;;5091834;28;20078;-62
2021/06/08 00:20:21;;;;;;;28.35;18.77;;;18.30;75.80;;;;;;5090763;28;20119;-62
2021/06/08 00:22:47;;;;;;;22.58;14.30;;;18.30;75.90;;;;;;5091659;28;20059;-62
2021/06/08 00:25:13;;;;;;;26.50;18.80;;;18.20;75.90;;;;;;5090511;28;20123;-62
2021/06/08 00:27:39;;;;;;;22.33;12.95;;;18.20;76.00;;;;;;5089702;28;20024;-62
2021/06/08 00:30:05;;;;;;;18.95;11.45;;;18.20;76.10;;;;;;5092257;28;20093;-62
2021/06/08 00:32:31;;;;;;;19.45;13.25;;;18.20;76.20;;;;;;5089295;28;20059;-62
2021/06/08 00:34:57;;;;;;;17.83;12.48;;;18.20;76.30;;;;;;5090653;28;20083;-62
2021/06/08 00:37:22;;;;;;;21.17;12.05;;;18.20;76.30;;;;;;5085635;28;20463;-62
2021/06/08 00:39:48;;;;;;;17.02;11.30;;;18.10;76.30;;;;;;5087977;28;20164;-62
2021/06/08 00:42:14;;;;;;;17.38;10.35;;;18.20;76.40;;;;;;5092048;28;20028;-62
2021/06/08 00:44:40;;;;;;;13.77;8.95;;;18.20;76.50;;;;;;5090662;28;20076;-62
2021/06/08 00:47:06;;;;;;;11.07;8.20;;;18.10;76.50;;;;;;5084992;28;20039;-62
2021/06/08 00:49:31;;;;;;;16.25;8.50;;;18.10;76.60;;;;;;5091127;28;20032;-62
2021/06/08 00:51:57;;;;;;;13.43;8.20;;;18.10;76.60;;;;;;5083706;28;20021;-62
2021/06/08 00:54:23;;;;;;;13.52;8.48;;;18.10;76.70;;;;;;5081703;28;20125;-62
2021/06/08 00:56:49;;;;;;;14.43;8.38;;;18.10;76.70;;;;;;5095183;28;20028;-62
2021/06/08 00:59:15;;;;;;;12.20;8.27;;;18.10;76.80;;;;;;5095468;28;20036;-62
2021/06/08 01:01:41;;;;;;;18.55;9.13;;;18.10;76.80;;;;;;5092957;28;20034;-62
2021/06/08 01:04:11;;;;;;;15.27;9.32;;;18.10;76.90;;;;;;5094933;28;20020;-62
2021/06/08 01:06:38;;;;;;;16.38;9.57;;;18.10;77.00;;;;;;5092485;28;20032;-62
2021/06/08 01:09:05;;;;;;;13.93;9.57;;;18.10;77.00;;;;;;5092255;28;20031;-62
2021/06/08 01:11:32;;;;;;;15.48;9.70;;;18.10;77.10;;;;;;5092788;28;20031;-62
2021/06/08 01:13:58;;;;;;;14.73;10.00;;;18.10;77.20;;;;;;5094374;28;20467;-62
2021/06/08 01:16:24;;;;;;;14.90;10.02;;;18.00;77.30;;;;;;5093840;28;20031;-62
2021/06/08 01:18:50;;;;;;;13.65;9.80;;;18.10;77.30;;;;;;5091043;28;20032;-62
2021/06/08 01:21:16;;;;;;;17.95;10.75;;;18.10;77.40;;;;;;5093066;28;20016;-62
2021/06/08 01:23:43;;;;;;;14.88;10.07;;;18.10;77.40;;;;;;5084570;28;20487;-62
2021/06/08 01:26:10;;;;;;;13.73;10.15;;;18.10;77.40;;;;;;5093184;28;20053;-62
2021/06/08 01:28:37;;;;;;;12.77;9.43;;;18.10;77.40;;;;;;5093008;28;20081;-62
2021/06/08 01:31:09;;;;;;;13.65;10.27;;;18.10;77.40;;;;;;5091495;28;20028;-62
2021/06/08 01:33:39;;;;;;;14.13;9.35;;;18.10;77.50;;;;;;5094059;28;20043;-62
2021/06/08 01:36:07;;;;;;;15.45;8.43;;;18.10;77.60;;;;;;5088444;28;20053;-62
2021/06/08 01:38:35;;;;;;;14.18;8.45;;;18.00;77.60;;;;;;5073279;28;20025;-62
2021/06/08 01:41:02;;;;;;;14.43;8.70;;;18.00;77.70;;;;;;5071607;28;20052;-62
2021/06/08 01:43:27;;;;;;;12.38;8.10;;;18.00;77.70;;;;;;5071615;28;20484;-63
2021/06/08 01:45:53;;;;;;;14.30;9.57;;;18.00;77.80;;;;;;5074379;28;20123;-62
2021/06/08 01:48:20;;;;;;;12.13;8.70;;;18.00;77.70;;;;;;5072266;28;20103;-62
2021/06/08 01:50:48;;;;;;;15.10;9.25;;;18.10;77.80;;;;;;5073392;28;20063;-62
2021/06/08 01:53:23;;;;;;;11.93;8.27;;;18.00;77.80;;;;;;5074472;28;20116;-62
2021/06/08 01:55:51;;;;;;;12.45;8.35;;;18.00;77.80;;;;;;5072343;28;20036;-62
2021/06/08 01:58:32;;;;;;;13.80;8.43;;;18.00;77.80;;;;;;5070629;28;20028;-62
2021/06/08 02:01:23;;;;;;;11.07;8.23;;;18.00;77.90;;;;;;5074462;28;20085;-62
2021/06/08 02:04:00;;;;;;;13.65;9.18;;;18.00;77.80;;;;;;5059317;28;20032;-62
2021/06/08 02:06:42;;;;;;;13.82;8.90;;;18.00;77.80;;;;;;5072795;28;20404;-62
2021/06/08 02:09:18;;;;;;;12.55;8.40;;;18.00;77.90;;;;;;5067618;28;20052;-62
2021/06/08 02:11:51;;;;;;;14.55;9.40;;;17.90;78.00;;;;;;5064732;28;20032;-62
2021/06/08 02:14:27;;;;;;;13.10;8.88;;;17.90;78.00;;;;;;5060776;28;20545;-62
2021/06/08 02:17:04;;;;;;;14.18;8.23;;;17.90;78.10;;;;;;5072449;28;20547;-62
2021/06/08 02:19:32;;;;;;;14.00;8.55;;;17.90;78.10;;;;;;5073443;28;20071;-62
2021/06/08 02:22:01;;;;;;;16.58;10.52;;;17.90;78.10;;;;;;5072992;28;20128;-62
2021/06/08 02:24:30;;;;;;;20.80;11.50;;;17.90;78.20;;;;;;5072354;28;20468;-62
2021/06/08 02:27:09;;;;;;;17.33;11.48;;;17.90;78.10;;;;;;5070702;28;20093;-62
2021/06/08 02:29:37;;;;;;;19.52;12.07;;;17.80;78.10;;;;;;5072308;28;20116;-62
2021/06/08 02:32:05;;;;;;;19.80;12.25;;;17.80;78.10;;;;;;5072689;28;20430;-62
2021/06/08 02:34:31;;;;;;;18.40;12.93;;;17.80;78.20;;;;;;5069394;28;20043;-62
2021/06/08 02:36:58;;;;;;;22.23;14.05;;;17.80;78.40;;;;;;5083810;28;20083;-62
2021/06/08 02:39:24;;;;;;;20.00;13.35;;;17.80;78.40;;;;;;5091237;28;20092;-62
2021/06/08 02:41:52;;;;;;;16.85;12.40;;;17.80;78.30;;;;;;5092807;28;20028;-62
2021/06/08 02:44:21;;;;;;;22.20;13.82;;;17.80;78.30;;;;;;5092077;28;20107;-60
2021/06/08 02:46:49;;;;;;;22.40;13.70;;;17.80;78.40;;;;;;5091855;28;20475;-60
2021/06/08 02:49:17;;;;;;;22.38;14.57;;;17.80;78.40;;;;;;5090542;28;20097;-61
2021/06/08 02:51:44;;;;;;;21.25;14.50;;;17.70;78.30;;;;;;5090246;28;20036;-63
2021/06/08 02:54:10;;;;;;;17.23;9.85;;;17.70;78.40;;;;;;5092387;28;20039;-60
2021/06/08 02:56:36;;;;;;;16.30;10.85;;;17.70;78.50;;;;;;5092118;28;20024;-60
2021/06/08 02:59:05;;;;;;;19.00;12.57;;;17.80;78.60;;;;;;5092615;28;20074;-60
2021/06/08 03:01:35;;;;;;;20.00;13.50;;;17.70;78.50;;;;;;5089007;28;20039;-61
2021/06/08 03:04:02;;;;;;;23.02;14.55;;;17.80;78.50;;;;;;5092273;28;20055;-60
2021/06/08 03:06:42;;;;;;;23.45;15.35;;;17.70;78.50;;;;;;5073856;28;20097;-60
2021/06/08 03:09:12;;;;;;;26.83;16.05;;;17.70;78.50;;;;;;5091564;28;20028;-60
2021/06/08 03:11:41;;;;;;;26.55;16.60;;;17.70;78.60;;;;;;5090808;28;20035;-60
2021/06/08 03:14:10;;;;;;;23.48;15.40;;;17.70;78.80;;;;;;5091256;28;20115;-60
2021/06/08 03:16:40;;;;;;;23.75;15.05;;;17.70;78.80;;;;;;5092366;28;20030;-60
2021/06/08 03:19:09;;;;;;;24.45;16.92;;;17.60;78.80;;;;;;5092013;28;20028;-60
2021/06/08 03:21:39;;;;;;;29.38;15.18;;;17.60;78.90;;;;;;5091331;28;20035;-60
2021/06/08 03:24:07;;;;;;;25.15;14.88;;;17.60;78.90;;;;;;5091136;28;20486;-60
2021/06/08 03:26:35;;;;;;;20.55;14.32;;;17.60;78.90;;;;;;5092305;28;20085;-60
2021/06/08 03:29:05;;;;;;;19.77;12.52;;;17.60;78.90;;;;;;5091403;28;20035;-60
2021/06/08 03:31:34;;;;;;;28.48;15.68;;;17.60;79.00;;;;;;5090204;28;20379;-60
2021/06/08 03:34:01;;;;;;;29.58;14.90;;;17.50;79.10;;;;;;5091232;28;20807;-60
2021/06/08 03:36:28;;;;;;;34.40;14.30;;;17.60;79.20;;;;;;5090345;28;20539;-60
2021/06/08 03:38:54;;;;;;;25.42;15.23;;;17.50;79.20;;;;;;5074571;28;20032;-60
2021/06/08 03:41:21;;;;;;;25.48;15.52;;;17.60;79.30;;;;;;5092274;28;20047;-60
2021/06/08 03:43:48;;;;;;;30.45;16.90;;;17.50;79.30;;;;;;5091615;28;20032;-60
2021/06/08 03:46:14;;;;;;;29.83;17.45;;;17.60;79.40;;;;;;5080380;28;20063;-60
2021/06/08 03:48:40;;;;;;;26.33;15.20;;;17.60;79.50;;;;;;5092163;28;20035;-60
2021/06/08 03:51:06;;;;;;;37.92;14.38;;;17.60;79.50;;;;;;5091294;28;20024;-60
2021/06/08 03:53:32;;;;;;;35.00;15.32;;;17.60;79.50;;;;;;5078387;28;20471;-60
2021/06/08 03:55:58;;;;;;;35.80;15.50;;;17.50;79.50;;;;;;5079525;28;20029;-60
2021/06/08 03:58:25;;;;;;;32.35;16.42;;;17.50;79.60;;;;;;5085858;28;20357;-60
2021/06/08 04:00:55;;;;;;;27.95;16.50;;;17.50;79.60;;;;;;5083612;28;20028;-60
2021/06/08 04:03:21;;;;;;;29.10;16.38;;;17.50;79.80;;;;;;5090737;28;20460;-60
2021/06/08 04:05:48;;;;;;;29.90;16.98;;;17.50;80.00;;;;;;5092299;28;20020;-60
2021/06/08 04:08:13;;;;;;;43.47;15.55;;;17.50;80.10;;;;;;5090043;28;20391;-60
2021/06/08 04:10:40;;;;;;;34.75;15.50;;;17.50;80.10;;;;;;5091055;28;20031;-60
2021/06/08 04:13:06;;;;;;;27.58;16.83;;;17.50;80.10;;;;;;5090182;28;20042;-61
2021/06/08 04:15:33;;;;;;;27.88;16.65;;;17.50;80.30;;;;;;5091809;28;20115;-60
2021/06/08 04:18:00;;;;;;;26.75;16.98;;;17.50;80.40;;;;;;5091386;28;20043;-60
2021/06/08 04:20:27;;;;;;;27.08;16.25;;;17.50;80.50;;;;;;5091560;28;20059;-60
2021/06/08 04:23:00;;;;;;;27.38;16.00;;;17.40;80.70;;;;;;5089107;28;20025;-60
2021/06/08 04:25:27;;;;;;;;;;;17.40;80.70;;;;;;5091170;28;20095;-60
2021/06/08 04:27:54;;;;;;;26.15;15.35;;;17.40;80.30;;;;;;5091965;28;19908;-60
2021/06/08 04:30:20;;;;;;;24.42;15.13;;;17.40;80.10;;;;;;5089796;28;20023;-60
2021/06/08 04:32:47;;;;;;;26.25;16.38;;;17.50;80.40;;;;;;5095194;28;20426;-60
2021/06/08 04:35:14;;;;;;;22.35;14.68;;;17.50;80.50;;;;;;5095582;28;20044;-60
2021/06/08 04:37:40;;;;;;;27.83;16.40;;;17.50;80.50;;;;;;5094741;28;20729;-60
2021/06/08 04:40:08;;;;;;;32.22;17.52;;;17.50;80.50;;;;;;5087989;28;20104;-60
2021/06/08 04:42:37;;;;;;;34.25;18.90;;;17.50;80.60;;;;;;5090233;28;20467;-60
2021/06/08 04:45:04;;;;;;;31.40;18.02;;;17.50;80.60;;;;;;5094146;28;20111;-60
2021/06/08 04:47:29;;;;;;;34.50;19.55;;;17.50;80.70;;;;;;5093997;28;20035;-61
2021/06/08 04:49:55;;;;;;;37.75;21.13;;;17.50;80.70;;;;;;5095492;28;20098;-60
2021/06/08 04:52:21;;;;;;;34.50;19.55;;;17.50;80.70;;;;;;5095085;28;20032;-60
2021/06/08 04:54:47;;;;;;;34.75;18.77;;;17.60;80.80;;;;;;5095282;28;20074;-61
2021/06/08 04:57:15;;;;;;;35.28;19.63;;;17.50;80.60;;;;;;5095941;28;20399;-61
2021/06/08 04:59:55;;;;;;;34.88;19.27;;;17.50;80.60;;;;;;5080320;28;20115;-60
2021/06/08 05:02:41;;;;;;;36.00;18.85;;;17.50;80.80;;;;;;5086624;28;20491;-60
2021/06/08 05:05:11;;;;;;;29.30;17.45;;;17.60;80.70;;;;;;5074299;28;20039;-61
2021/06/08 05:07:44;;;;;;;33.10;18.10;;;17.50;80.40;;;;;;5090932;28;20028;-61
2021/06/08 05:10:12;;;;;;;34.53;19.27;;;17.50;80.50;;;;;;5087646;28;20012;-61
2021/06/08 05:12:42;;;;;;;45.65;20.80;;;17.60;80.70;;;;;;5088814;28;20502;-61
2021/06/08 05:15:10;;;;;;;40.28;20.17;;;17.50;80.70;;;;;;5088742;28;20039;-61
2021/06/08 05:17:36;;;;;;;41.78;22.70;;;17.50;80.80;;;;;;5094430;28;20052;-59
2021/06/08 05:20:04;;;;;;;33.40;17.73;;;17.50;80.80;;;;;;5095211;28;20024;-59
2021/06/08 05:22:32;;;;;;;34.40;19.45;;;17.50;80.70;;;;;;5090244;28;20087;-60
2021/06/08 05:24:57;;;;;;;37.15;19.60;;;17.50;80.80;;;;;;5092548;28;20028;-59
2021/06/08 05:27:24;;;;;;;33.83;19.20;;;17.50;80.90;;;;;;5090537;28;20369;-59
2021/06/08 05:29:56;;;;;;;35.13;21.27;;;17.50;80.90;;;;;;5092004;28;20502;-59
2021/06/08 05:32:22;;;;;;;28.20;17.90;;;17.50;81.00;;;;;;5090967;28;20441;-59
2021/06/08 05:34:48;;;;;;;32.35;19.83;;;17.50;80.90;;;;;;5090795;28;20035;-59
2021/06/08 05:37:15;;;;;;;32.50;17.70;;;17.50;80.80;;;;;;5092779;28;20074;-59
2021/06/08 05:39:42;;;;;;;33.25;20.23;;;17.50;80.80;;;;;;5092539;28;20134;-58
2021/06/08 05:42:10;;;;;;;30.85;20.23;;;17.50;80.70;;;;;;5094020;28;20028;-58
2021/06/08 05:44:37;;;;;;;35.53;20.98;;;17.50;80.60;;;;;;5094116;28;20115;-59
2021/06/08 05:47:04;;;;;;;25.17;16.63;;;17.50;80.60;;;;;;5093580;28;20391;-59
2021/06/08 05:49:31;;;;;;;28.58;15.95;;;17.50;81.00;;;;;;5092496;28;20055;-62
2021/06/08 05:51:59;;;;;;;23.15;14.23;;;17.50;80.20;;;;;;5090691;28;20058;-63
2021/06/08 05:54:28;;;;;;;26.42;16.83;;;17.50;80.00;;;;;;5093474;28;20083;-60
2021/06/08 05:56:55;;;;;;;27.92;17.70;;;17.50;80.10;;;;;;5092372;28;20038;-60
2021/06/08 05:59:22;;;;;;;29.30;17.50;;;17.50;80.20;;;;;;5087126;28;20081;-60
2021/06/08 06:01:48;;;;;;;26.35;16.00;;;17.50;80.20;;;;;;5092464;28;20032;-60
2021/06/08 06:04:20;;;;;;;21.95;13.20;;;17.50;80.10;;;;;;5091776;28;20058;-60
2021/06/08 06:06:46;;;;;;;19.25;11.18;;;17.50;80.10;;;;;;5091959;28;20024;-60
2021/06/08 06:09:15;;;;;;;17.95;10.90;;;17.50;80.10;;;;;;5091043;28;20095;-60
2021/06/08 06:11:42;;;;;;;16.25;10.43;;;17.60;80.10;;;;;;5090790;28;20032;-60
2021/06/08 06:14:08;;;;;;;14.05;9.00;;;17.50;80.10;;;;;;5091351;28;20040;-62
2021/06/08 06:16:40;;;;;;;14.80;9.20;;;17.60;80.20;;;;;;5088534;28;20448;-62
2021/06/08 06:19:08;;;;;;;15.27;9.80;;;17.50;80.00;;;;;;5091214;28;20028;-61
2021/06/08 06:21:35;;;;;;;17.08;11.00;;;17.50;80.00;;;;;;5093734;28;20028;-61
2021/06/08 06:24:01;;;;;;;19.13;12.15;;;17.50;80.00;;;;;;5092972;28;20027;-60
2021/06/08 06:26:27;;;;;;;18.40;12.20;;;17.50;80.00;;;;;;5093076;28;20095;-60
2021/06/08 06:28:54;;;;;;;17.25;11.27;;;17.60;80.10;;;;;;5090448;28;20024;-60
2021/06/08 06:31:20;;;;;;;15.55;10.65;;;17.50;80.00;;;;;;5090887;28;20031;-60
2021/06/08 06:33:51;;;;;;;18.30;11.88;;;17.50;80.00;;;;;;5091254;28;20040;-62
2021/06/08 06:36:19;;;;;;;20.80;12.50;;;17.60;80.20;;;;;;5089301;28;20043;-63
2021/06/08 06:38:49;;;;;;;19.63;12.63;;;17.60;80.10;;;;;;5083900;28;20024;-63
2021/06/08 06:41:16;;;;;;;18.45;11.90;;;17.60;80.20;;;;;;5090287;28;20098;-63
2021/06/08 06:43:47;;;;;;;17.55;12.13;;;17.60;80.30;;;;;;5093251;28;20071;-63
2021/06/08 06:46:15;;;;;;;18.17;11.05;;;17.60;80.30;;;;;;5092551;28;20020;-63
2021/06/08 06:48:42;;;;;;;16.77;11.80;;;17.60;80.50;;;;;;5085381;28;20514;-63
2021/06/08 06:51:09;;;;;;;15.38;10.80;;;17.70;80.60;;;;;;5089395;28;20519;-63
2021/06/08 06:53:35;;;;;;;15.38;10.50;;;17.70;80.40;;;;;;5092736;28;20124;-63
2021/06/08 06:56:02;;;;;;;13.75;9.30;;;17.70;80.50;;;;;;5092154;28;20059;-60
2021/06/08 06:58:27;;;;;;;16.13;9.43;;;17.70;80.50;;;;;;5093027;28;20024;-60
2021/06/08 07:00:54;;;;;;;10.95;8.10;;;17.70;80.40;;;;;;5092463;28;20035;-60
2021/06/08 07:03:46;;;;;;;11.27;7.47;;;17.70;80.30;;;;;;5090585;28;20020;-60
2021/06/08 07:06:14;;;;;;;10.65;7.05;;;17.70;79.90;;;;;;5086293;28;20047;-63
2021/06/08 07:08:41;;;;;;;12.18;7.57;;;17.80;79.80;;;;;;5092480;28;20099;-60
2021/06/08 07:11:07;;;;;;;12.48;7.03;;;17.80;79.90;;;;;;5092839;28;20035;-60
2021/06/08 07:13:33;;;;;;;9.45;6.60;;;17.80;79.80;;;;;;5089999;28;20071;-60
2021/06/08 07:15:59;;;;;;;13.45;7.97;;;17.80;79.80;;;;;;5093126;28;20031;-60
2021/06/08 07:18:25;;;;;;;9.70;6.70;;;17.80;79.70;;;;;;5090218;28;20036;-60
2021/06/08 07:20:51;;;;;;;11.30;7.85;;;17.90;79.60;;;;;;5089383;28;20126;-60
2021/06/08 07:23:20;;;;;;;12.15;6.88;;;17.90;79.50;;;;;;5089942;28;20039;-60
2021/06/08 07:25:48;;;;;;;10.65;6.78;;;17.90;79.30;;;;;;5089682;28;20032;-60
2021/06/08 07:28:18;;;;;;;10.70;7.00;;;18.00;79.40;;;;;;5081737;28;20019;-60
2021/06/08 07:30:43;;;;;;;11.00;7.03;;;18.00;79.20;;;;;;5089263;28;20038;-60
2021/06/08 07:33:38;;;;;;;10.52;6.85;;;18.10;79.10;;;;;;5088076;28;20111;-60
2021/06/08 07:36:21;;;;;;;9.00;6.10;;;18.10;79.00;;;;;;5083855;28;20503;-60
2021/06/08 07:39:01;;;;;;;15.15;7.15;;;18.10;78.80;;;;;;5085485;28;20058;-60
2021/06/08 07:41:39;;;;;;;9.43;6.35;;;18.10;78.40;;;;;;5090282;28;20032;-60
2021/06/08 07:44:09;;;;;;;8.13;6.07;;;18.20;78.40;;;;;;5092567;28;20048;-60
2021/06/08 07:46:39;;;;;;;9.75;6.25;;;18.20;78.70;;;;;;5091004;28;20028;-60
2021/06/08 07:49:06;;;;;;;11.23;6.05;;;18.20;78.50;;;;;;5079766;28;20119;-60
2021/06/08 07:51:32;;;;;;;9.52;6.38;;;18.20;78.20;;;;;;5092195;28;20035;-60
2021/06/08 07:54:02;;;;;;;9.85;6.93;;;18.30;78.20;;;;;;5093017;28;20055;-60
2021/06/08 07:56:29;;;;;;;10.63;6.78;;;18.30;78.30;;;;;;5087524;28;20495;-60
2021/06/08 07:58:55;;;;;;;12.35;7.30;;;18.40;78.40;;;;;;5090694;28;20559;-60
2021/06/08 08:01:21;;;;;;;13.65;7.15;;;18.50;78.20;;;;;;5088777;28;20020;-60
2021/06/08 08:03:50;;;;;;;11.07;7.32;;;18.60;78.00;;;;;;5091190;28;20383;-59
2021/06/08 08:06:17;;;;;;;9.77;6.43;;;18.60;77.60;;;;;;5090340;28;20024;-60
2021/06/08 08:08:43;;;;;;;9.50;6.47;;;18.60;77.50;;;;;;5089375;28;20047;-60
2021/06/08 08:11:14;;;;;;;10.30;7.20;;;18.70;77.40;;;;;;5090568;28;20114;-60
2021/06/08 08:13:50;;;;;;;12.13;7.40;;;18.70;77.10;;;;;;5088706;28;20110;-60
2021/06/08 08:16:17;;;;;;;10.30;7.10;;;18.80;77.30;;;;;;5076760;28;20085;-60
2021/06/08 08:18:43;;;;;;;12.32;7.78;;;18.80;77.30;;;;;;5089624;28;20117;-60
2021/06/08 08:21:13;;;;;;;11.90;7.43;;;18.80;77.30;;;;;;5089915;28;20029;-60
2021/06/08 08:23:40;;;;;;;12.13;8.15;;;18.90;77.10;;;;;;5090853;28;20035;-60
2021/06/08 08:26:08;;;;;;;11.50;7.75;;;18.90;77.20;;;;;;5090118;28;20069;-60
2021/06/08 08:28:35;;;;;;;13.05;8.30;;;18.90;77.10;;;;;;5088112;28;20372;-60
2021/06/08 08:31:04;;;;;;;11.27;7.93;;;18.90;78.00;;;;;;5083470;28;20118;-60
2021/06/08 08:33:30;;;;;;;14.00;8.70;;;19.00;77.50;;;;;;5090702;28;20381;-60
2021/06/08 08:35:57;;;;;;;11.90;8.57;;;19.10;77.30;;;;;;5090714;28;20048;-60
2021/06/08 08:38:23;;;;;;;11.63;8.75;;;19.10;76.80;;;;;;5090772;28;20030;-60
2021/06/08 08:40:49;;;;;;;13.35;9.35;;;19.10;76.40;;;;;;5091941;28;20111;-60
2021/06/08 08:43:16;;;;;;;14.43;10.18;;;19.10;76.70;;;;;;5090381;28;20058;-60
2021/06/08 08:45:42;;;;;;;16.63;9.07;;;19.10;76.60;;;;;;5091211;28;20028;-60
2021/06/08 08:48:08;;;;;;;19.98;12.63;;;19.10;76.80;;;;;;5087327;28;20449;-60
2021/06/08 08:50:34;;;;;;;16.65;11.93;;;19.20;77.20;;;;;;5090881;28;20032;-60
2021/06/08 08:53:05;;;;;;;17.17;11.88;;;19.20;77.50;;;;;;5090523;28;20032;-60
2021/06/08 08:55:34;;;;;;;23.80;14.93;;;19.20;77.70;;;;;;5083508;28;20028;-60
2021/06/08 08:58:02;;;;;;;20.38;14.88;;;19.20;77.70;;;;;;5084362;28;20031;-60
2021/06/08 09:00:30;;;;;;;17.88;14.00;;;19.20;77.90;;;;;;5090681;28;20032;-60
2021/06/08 09:03:01;;;;;;;24.17;15.55;;;19.30;77.30;;;;;;5078297;28;20472;-60
2021/06/08 09:05:28;;;;;;;23.92;14.73;;;19.30;77.30;;;;;;5090783;28;20028;-60
2021/06/08 09:07:54;;;;;;;24.02;16.30;;;19.30;77.30;;;;;;5089486;28;20055;-60
2021/06/08 09:10:21;;;;;;;23.40;16.23;;;19.40;77.60;;;;;;5089813;28;20037;-60
2021/06/08 09:12:48;;;;;;;24.23;17.70;;;19.40;77.80;;;;;;5087763;28;20031;-60
2021/06/08 09:15:13;;;;;;;25.85;18.17;;;19.40;77.80;;;;;;5090937;28;20115;-60
2021/06/08 09:17:40;;;;;;;22.60;16.17;;;19.50;78.00;;;;;;5095359;28;20492;-60
2021/06/08 09:20:11;;;;;;;20.58;15.10;;;19.50;77.60;;;;;;5081938;28;20032;-60
2021/06/08 09:22:53;;;;;;;23.67;16.95;;;19.50;78.10;;;;;;5093941;28;20024;-60
2021/06/08 09:25:37;;;;;;;23.25;15.32;;;19.50;77.10;;;;;;5090944;28;20024;-60
2021/06/08 09:28:35;;;;;;;23.98;16.40;;;19.60;77.00;;;;;;5085607;28;20036;-60
2021/06/08 09:31:09;;;;;;;21.50;15.40;;;19.60;77.60;;;;;;5082494;28;20066;-60
2021/06/08 09:33:38;;;;;;;23.05;17.33;;;19.60;77.60;;;;;;5075173;28;20132;-60
2021/06/08 09:36:10;;;;;;;22.17;16.02;;;19.70;77.60;;;;;;5081639;28;20048;-60
2021/06/08 09:38:47;;;;;;;21.75;15.90;;;19.70;77.70;;;;;;5093564;28;20069;-60
2021/06/08 09:41:16;;;;;;;23.27;14.93;;;19.70;77.10;;;;;;5081107;28;20056;-60
2021/06/08 09:43:50;;;;;;;18.05;13.55;;;19.80;76.80;;;;;;5093256;28;20046;-60
2021/06/08 09:46:16;;;;;;;20.55;13.52;;;19.80;75.90;;;;;;5093293;28;20430;-60
2021/06/08 09:48:54;;;;;;;18.83;12.95;;;19.90;75.80;;;;;;5085400;28;20490;-59
2021/06/08 09:51:19;;;;;;;19.85;13.65;;;19.90;75.70;;;;;;5093010;28;20432;-65
2021/06/08 09:53:45;;;;;;;20.00;13.93;;;19.90;75.60;;;;;;5094604;28;20036;-65
2021/06/08 09:56:12;;;;;;;22.35;13.95;;;20.00;75.80;;;;;;5092760;28;20654;-65
2021/06/08 09:58:44;;;;;;;18.77;13.15;;;20.00;76.00;;;;;;5086373;28;20048;-65
2021/06/08 10:01:20;;;;;;;20.85;13.18;;;20.10;75.40;;;;;;5094105;28;20043;-65
2021/06/08 10:03:52;;;;;;;17.27;12.20;;;20.10;75.60;;;;;;5093776;28;20031;-66
2021/06/08 10:06:27;;;;;;;22.52;14.25;;;20.20;74.90;;;;;;5092581;28;20032;-65
2021/06/08 10:08:57;;;;;;;19.88;13.13;;;20.30;75.40;;;;;;5092597;28;20115;-65
2021/06/08 10:11:29;;;;;;;16.90;12.40;;;20.30;74.70;;;;;;5093734;28;20035;-65
2021/06/08 10:14:19;;;;;;;17.90;10.90;;;20.30;74.40;;;;;;5092542;28;20028;-65
2021/06/08 10:17:01;;;;;;;18.15;11.88;;;20.40;74.30;;;;;;5091958;28;20029;-65
2021/06/08 10:19:28;;;;;;;17.33;11.55;;;20.50;74.10;;;;;;5092363;28;20028;-65
2021/06/08 10:21:54;;;;;;;19.92;12.93;;;20.50;73.90;;;;;;5090477;28;20059;-65
2021/06/08 10:24:22;;;;;;;19.02;12.30;;;20.50;73.90;;;;;;5092415;28;20058;-65
2021/06/08 10:26:51;;;;;;;18.25;11.20;;;20.60;75.60;;;;;;5093142;28;20122;-65
2021/06/08 10:29:28;;;;;;;16.00;11.73;;;20.70;74.10;;;;;;5093103;28;20031;-65
2021/06/08 10:31:55;;;;;;;14.80;9.45;;;20.70;74.30;;;;;;5089394;28;20016;-65
2021/06/08 10:34:21;;;;;;;13.90;9.07;;;20.80;72.60;;;;;;5093115;28;20089;-65
2021/06/08 10:36:48;;;;;;;13.10;9.38;;;20.80;71.80;;;;;;5093247;28;20036;-65
2021/06/08 10:39:18;;;;;;;13.38;9.25;;;20.90;71.50;;;;;;5089725;28;20039;-65
2021/06/08 10:41:46;;;;;;;16.17;9.10;;;20.90;70.80;;;;;;5092778;28;20028;-65
2021/06/08 10:44:19;;;;;;;13.90;10.40;;;21.00;69.60;;;;;;5091549;28;20032;-65
2021/06/08 10:46:50;;;;;;;11.57;7.40;;;20.90;68.70;;;;;;5092697;28;20115;-65
2021/06/08 10:49:16;;;;;;;10.60;7.10;;;21.00;68.50;;;;;;5091121;28;20483;-65
2021/06/08 10:52:14;;;;;;;9.77;7.45;;;21.00;67.80;;;;;;5092120;28;20448;-65
2021/06/08 10:54:50;;;;;;;12.18;7.53;;;21.10;67.70;;;;;;5090425;28;20046;-65
2021/06/08 10:57:17;;;;;;;16.73;9.75;;;21.10;68.50;;;;;;5090478;28;20093;-65
2021/06/08 10:59:46;;;;;;;13.13;8.13;;;21.20;69.30;;;;;;5091424;28;20032;-65
2021/06/08 11:02:33;;;;;;;13.48;9.40;;;21.20;69.50;;;;;;5092559;28;20028;-65
2021/06/08 11:04:59;;;;;;;14.02;9.23;;;21.30;69.80;;;;;;5086224;28;20046;-63
2021/06/08 11:07:43;;;;;;;12.18;8.18;;;21.40;69.60;;;;;;5092067;28;20020;-64
2021/06/08 11:10:42;;;;;;;15.50;9.35;;;21.40;69.10;;;;;;5092086;28;20047;-63
2021/06/08 11:13:11;;;;;;;12.73;7.30;;;21.50;69.50;;;;;;5084396;28;20133;-63
2021/06/08 11:15:44;;;;;;;13.40;8.65;;;21.60;68.40;;;;;;5089781;28;20130;-64
2021/06/08 11:18:22;;;;;;;11.40;7.00;;;21.60;67.60;;;;;;5091375;28;20024;-63
2021/06/08 11:20:57;;;;;;;9.43;6.78;;;21.60;68.00;;;;;;5088070;28;20028;-63
2021/06/08 11:23:43;;;;;;;15.07;6.78;;;21.70;68.50;;;;;;5085079;28;20028;-64
2021/06/08 11:26:14;;;;;;;11.98;7.03;;;21.80;68.10;;;;;;5085037;28;20039;-64
2021/06/08 11:28:49;;;;;;;11.65;6.90;;;21.80;67.80;;;;;;5094652;28;20054;-65
2021/06/08 11:31:17;;;;;;;11.55;7.57;;;21.80;68.00;;;;;;5091489;28;20065;-65
2021/06/08 11:33:46;;;;;;;10.25;6.20;;;21.90;68.30;;;;;;5091616;28;20024;-65
2021/06/08 11:36:22;;;;;;;11.82;7.90;;;21.90;68.30;;;;;;5091708;28;20048;-65
2021/06/08 11:38:56;;;;;;;7.75;5.10;;;22.00;67.70;;;;;;5089990;28;20035;-65
2021/06/08 11:41:22;;;;;;;10.35;7.15;;;22.00;66.50;;;;;;5090209;28;20024;-62
2021/06/08 11:43:54;;;;;;;9.73;7.25;;;22.10;66.80;;;;;;5091670;28;20475;-62
2021/06/08 11:46:32;;;;;;;10.35;6.35;;;22.10;66.40;;;;;;5090402;28;20028;-62
2021/06/08 11:49:12;;;;;;;11.88;6.90;;;22.10;65.60;;;;;;5088387;28;20070;-62
2021/06/08 11:51:46;;;;;;;7.45;4.80;;;22.20;65.20;;;;;;5091352;28;20028;-62
2021/06/08 11:54:16;;;;;;;8.32;4.60;;;22.10;62.60;;;;;;5088817;28;20066;-62
2021/06/08 11:57:03;;;;;;;7.13;4.72;;;22.20;62.10;;;;;;5091665;28;20043;-62
2021/06/08 11:59:33;;;;;;;9.77;6.43;;;22.20;60.90;;;;;;5091587;28;20028;-62
2021/06/08 12:02:06;;;;;;;8.60;5.75;;;22.20;60.50;;;;;;5090843;28;20399;-62
2021/06/08 12:05:08;;;;;;;13.85;10.23;;;22.30;60.20;;;;;;5086473;28;20032;-63
2021/06/08 12:07:56;;;;;;;18.27;10.32;;;22.40;62.30;;;;;;5089595;28;20016;-62
2021/06/08 12:10:48;;;;;;;14.20;10.00;;;22.50;62.40;;;;;;5090274;28;20479;-62
2021/06/08 12:13:16;;;;;;;20.40;10.38;;;22.50;63.20;;;;;;5086574;28;20051;-62
2021/06/08 12:15:45;;;;;;;17.30;12.52;;;22.60;63.60;;;;;;5087583;28;20402;-60
2021/06/08 12:18:23;;;;;;;17.05;11.05;;;22.60;62.90;;;;;;5091631;28;20480;-60
2021/06/08 12:20:49;;;;;;;14.40;10.75;;;22.60;62.80;;;;;;5091378;28;20187;-60
2021/06/08 12:23:34;;;;;;;12.82;9.00;;;22.60;63.30;;;;;;5091741;28;20024;-60
2021/06/08 12:26:21;;;;;;;11.40;5.97;;;22.70;65.50;;;;;;5079672;28;20114;-61
2021/06/08 12:29:05;;;;;;;11.68;7.57;;;22.70;67.00;;;;;;5092155;28;20115;-61
2021/06/08 12:31:31;;;;;;;12.00;7.45;;;22.70;68.00;;;;;;5091414;28;20036;-61
2021/06/08 12:33:58;;;;;;;10.98;7.40;;;22.70;68.60;;;;;;5088349;28;20048;-61
2021/06/08 12:36:24;;;;;;;9.55;6.30;;;22.70;69.10;;;;;;5090174;28;20044;-61
2021/06/08 12:38:52;;;;;;;7.90;5.40;;;22.60;69.40;;;;;;5085947;28;20036;-62
2021/06/08 12:41:26;;;;;;;8.45;5.50;;;22.60;69.40;;;;;;5084008;28;20495;-63
2021/06/08 12:43:57;;;;;;;7.35;4.95;;;22.60;69.90;;;;;;5091942;28;20115;-62
2021/06/08 12:46:40;;;;;;;8.80;5.95;;;22.60;69.60;;;;;;5093118;28;20043;-63